Time;durP1;ratioP1;P1;durP2;ratioP2;P2;SDS_P1;SDS_P2;PMS_P1;PMS_P2;Temp;Humidity;BMP_temperature;BMP_pressure;BME280_temperature;BME280_humidity;BME280_pressure;Samples;Min_cycle;Max_cycle;Signal;HPM_P1;HPM_P2
2022/10/02 00:02:32;;;;;;;15.20;3.03;;;;;;;;;;4994571;28;20171;-83
2022/10/02 00:05:06;;;;;;;6.53;2.80;;;;;;;;;;4987596;28;20211;-82
2022/10/02 00:07:50;;;;;;;10.57;2.70;;;;;;;;;;4990546;28;20176;-83
2022/10/02 00:10:28;;;;;;;8.73;2.93;;;;;;;;;;4994801;28;20228;-83
2022/10/02 00:12:55;;;;;;;10.63;2.67;;;;;;;;;;4990225;28;20231;-83
2022/10/02 00:15:28;;;;;;;10.37;3.20;;;;;;;;;;4991964;28;20267;-83
2022/10/02 00:18:01;;;;;;;12.97;3.47;;;;;;;;;;5007470;28;20264;-83
2022/10/02 00:20:52;;;;;;;7.23;3.27;;;;;;;;;;4990955;28;20181;-83
2022/10/02 00:23:18;;;;;;;9.40;2.80;;;;;;;;;;4991680;28;20247;-83
2022/10/02 00:25:59;;;;;;;9.17;3.03;;;;;;;;;;4992918;28;20205;-83
2022/10/02 00:28:27;;;;;;;9.33;2.73;;;;;;;;;;4990595;28;20216;-83
2022/10/02 00:30:52;;;;;;;6.27;2.63;;;;;;;;;;4991155;28;20202;-83
2022/10/02 00:33:35;;;;;;;6.27;2.77;;;;;;;;;;4993252;28;20193;-83
2022/10/02 00:36:19;;;;;;;9.33;2.63;;;;;;;;;;4992068;28;20520;-83
2022/10/02 00:38:57;;;;;;;5.83;2.13;;;;;;;;;;4991421;28;20249;-83
2022/10/02 00:41:35;;;;;;;8.83;3.17;;;;;;;;;;4991832;28;20185;-83
2022/10/02 00:44:20;;;;;;;5.60;2.63;;;;;;;;;;4992536;28;20190;-83
2022/10/02 00:46:48;;;;;;;10.47;3.13;;;;;;;;;;4990390;28;20176;-83
2022/10/02 00:49:35;;;;;;;12.17;2.97;;;;;;;;;;4992301;28;20243;-83
2022/10/02 00:52:01;;;;;;;9.53;3.27;;;;;;;;;;4990710;28;20263;-83
2022/10/02 00:54:27;;;;;;;6.83;2.67;;;;;;;;;;4989941;28;20208;-83
2022/10/02 00:57:01;;;;;;;9.47;2.93;;;;;;;;;;4992367;28;20187;-83
2022/10/02 00:59:31;;;;;;;7.10;3.30;;;;;;;;;;4994372;28;20219;-83
2022/10/02 01:02:16;;;;;;;8.77;2.67;;;;;;;;;;4999532;28;20196;-83
2022/10/02 01:04:42;;;;;;;6.50;2.40;;;;;;;;;;4950465;28;20197;-83
2022/10/02 01:07:08;;;;;;;11.10;4.23;;;;;;;;;;4998699;28;20689;-83
2022/10/02 01:09:34;;;;;;;8.00;3.07;;;;;;;;;;4991977;28;20177;-83
2022/10/02 01:11:59;;;;;;;9.40;3.37;;;;;;;;;;4996414;28;20262;-83
2022/10/02 01:14:35;;;;;;;6.07;2.77;;;;;;;;;;4992886;28;20189;-83
2022/10/02 01:17:00;;;;;;;8.53;2.90;;;;;;;;;;5016496;28;20175;-83
2022/10/02 01:19:31;;;;;;;7.67;2.53;;;;;;;;;;4990124;28;20202;-84
2022/10/02 01:22:08;;;;;;;8.13;2.77;;;;;;;;;;4986249;28;21607;-83
2022/10/02 01:24:38;;;;;;;7.10;3.37;;;;;;;;;;4984696;28;20183;-83
2022/10/02 01:27:04;;;;;;;9.47;2.67;;;;;;;;;;4992183;28;20258;-83
2022/10/02 01:29:29;;;;;;;9.30;2.63;;;;;;;;;;4996867;28;20267;-83
2022/10/02 01:31:55;;;;;;;9.10;2.97;;;;;;;;;;4995008;28;20221;-83
2022/10/02 01:34:20;;;;;;;8.43;2.93;;;;;;;;;;5007251;28;20180;-84
2022/10/02 01:36:46;;;;;;;6.87;2.57;;;;;;;;;;4983975;28;20181;-83
2022/10/02 01:39:11;;;;;;;6.07;2.30;;;;;;;;;;5004572;28;20204;-83
2022/10/02 01:41:40;;;;;;;17.40;3.80;;;;;;;;;;4992468;28;20207;-83
2022/10/02 01:44:05;;;;;;;7.27;2.80;;;;;;;;;;4989338;28;20184;-84
2022/10/02 01:46:46;;;;;;;6.37;3.10;;;;;;;;;;4991032;28;20174;-83
2022/10/02 01:49:11;;;;;;;11.77;3.20;;;;;;;;;;4996149;28;20203;-83
2022/10/02 01:51:47;;;;;;;9.27;3.07;;;;;;;;;;4989041;28;20309;-83
2022/10/02 01:54:31;;;;;;;5.90;2.60;;;;;;;;;;4985184;28;20263;-83
2022/10/02 01:57:00;;;;;;;9.27;3.23;;;;;;;;;;5001226;28;20177;-83
2022/10/02 01:59:28;;;;;;;5.10;2.57;;;;;;;;;;4992254;28;20215;-83
2022/10/02 02:01:56;;;;;;;12.77;3.43;;;;;;;;;;4989558;28;20213;-83
2022/10/02 02:04:23;;;;;;;10.17;2.87;;;;;;;;;;4989672;28;20176;-83
2022/10/02 02:06:55;;;;;;;10.10;2.90;;;;;;;;;;4987237;28;20178;-83
2022/10/02 02:09:39;;;;;;;12.37;4.17;;;;;;;;;;4991617;28;20184;-83
2022/10/02 02:12:13;;;;;;;8.90;2.60;;;;;;;;;;4990387;28;20304;-83
2022/10/02 02:14:46;;;;;;;9.17;3.47;;;;;;;;;;4990557;28;20172;-83
2022/10/02 02:17:14;;;;;;;12.03;3.47;;;;;;;;;;5006485;28;20185;-83
2022/10/02 02:19:44;;;;;;;10.70;2.80;;;;;;;;;;4988916;28;20178;-82
2022/10/02 02:22:17;;;;;;;13.43;3.00;;;;;;;;;;4990302;28;20182;-82
2022/10/02 02:24:44;;;;;;;7.30;2.90;;;;;;;;;;4984603;28;20178;-82
2022/10/02 02:27:12;;;;;;;7.80;2.50;;;;;;;;;;4991063;28;20181;-83
2022/10/02 02:29:39;;;;;;;8.50;3.07;;;;;;;;;;4996969;28;20192;-82
2022/10/02 02:32:07;;;;;;;9.10;2.60;;;;;;;;;;4990477;28;20201;-82
2022/10/02 02:34:34;;;;;;;8.83;3.10;;;;;;;;;;4992267;28;20187;-82
2022/10/02 02:37:03;;;;;;;8.97;3.13;;;;;;;;;;4991710;28;20180;-83
2022/10/02 02:39:32;;;;;;;6.87;2.27;;;;;;;;;;4996355;28;20185;-83
2022/10/02 02:42:00;;;;;;;9.83;3.10;;;;;;;;;;4989743;28;20186;-82
2022/10/02 02:44:47;;;;;;;6.33;2.67;;;;;;;;;;5007885;28;20189;-82
2022/10/02 02:47:25;;;;;;;6.23;2.83;;;;;;;;;;4988506;28;20176;-82
2022/10/02 02:50:02;;;;;;;7.03;2.60;;;;;;;;;;4988774;28;20280;-82
2022/10/02 02:52:30;;;;;;;7.10;3.00;;;;;;;;;;4987748;28;20285;-82
2022/10/02 02:55:08;;;;;;;10.00;2.70;;;;;;;;;;4988882;28;20183;-83
2022/10/02 02:57:40;;;;;;;5.67;2.67;;;;;;;;;;4985303;28;20184;-83
2022/10/02 03:00:06;;;;;;;9.13;3.00;;;;;;;;;;4983082;28;20212;-82
2022/10/02 03:02:32;;;;;;;6.57;2.30;;;;;;;;;;5004797;28;20172;-82
2022/10/02 03:04:57;;;;;;;12.00;2.80;;;;;;;;;;4995300;28;20173;-82
2022/10/02 03:07:22;;;;;;;6.50;2.57;;;;;;;;;;4988362;28;20188;-83
2022/10/02 03:10:00;;;;;;;7.33;3.00;;;;;;;;;;4988593;28;20200;-82
2022/10/02 03:12:44;;;;;;;4.83;2.53;;;;;;;;;;4990562;28;20181;-83
2022/10/02 03:15:18;;;;;;;6.77;2.20;;;;;;;;;;4988739;28;20198;-82
2022/10/02 03:17:43;;;;;;;7.70;2.60;;;;;;;;;;4990134;28;20470;-82
2022/10/02 03:20:20;;;;;;;4.90;2.60;;;;;;;;;;4995269;28;20188;-82
2022/10/02 03:22:45;;;;;;;10.93;2.40;;;;;;;;;;4990372;28;20212;-83
2022/10/02 03:25:10;;;;;;;7.03;2.80;;;;;;;;;;4989082;28;20251;-82
2022/10/02 03:27:38;;;;;;;9.70;2.70;;;;;;;;;;4990671;28;20181;-82
2022/10/02 03:30:05;;;;;;;7.23;2.50;;;;;;;;;;4990623;28;20196;-83
2022/10/02 03:32:32;;;;;;;8.00;2.87;;;;;;;;;;4982638;28;20192;-82
2022/10/02 03:34:57;;;;;;;7.47;2.43;;;;;;;;;;4988529;28;20186;-83
2022/10/02 03:37:24;;;;;;;7.97;2.70;;;;;;;;;;4993278;28;20180;-82
2022/10/02 03:39:51;;;;;;;7.20;2.47;;;;;;;;;;5000199;28;20176;-82
2022/10/02 03:42:18;;;;;;;7.33;2.93;;;;;;;;;;4995028;28;20173;-83
2022/10/02 03:44:43;;;;;;;5.97;2.47;;;;;;;;;;4988786;28;20172;-82
2022/10/02 03:47:09;;;;;;;5.13;2.10;;;;;;;;;;4986681;28;20250;-82
2022/10/02 03:49:34;;;;;;;6.47;3.10;;;;;;;;;;4988393;28;20184;-83
2022/10/02 03:51:59;;;;;;;10.87;2.73;;;;;;;;;;5004369;28;20228;-82
2022/10/02 03:54:25;;;;;;;8.00;2.87;;;;;;;;;;4994539;28;20185;-81
2022/10/02 03:56:57;;;;;;;8.37;2.63;;;;;;;;;;4989085;28;20196;-82
2022/10/02 03:59:28;;;;;;;7.60;2.30;;;;;;;;;;4990178;28;20207;-82
2022/10/02 04:01:54;;;;;;;11.23;2.83;;;;;;;;;;4986555;28;20178;-82
2022/10/02 04:04:25;;;;;;;13.43;2.57;;;;;;;;;;4989920;28;20185;-83
2022/10/02 04:06:53;;;;;;;7.53;2.03;;;;;;;;;;4987570;28;20180;-82
2022/10/02 04:09:25;;;;;;;8.67;2.37;;;;;;;;;;4989993;28;20250;-83
2022/10/02 04:11:56;;;;;;;8.87;2.50;;;;;;;;;;4989951;28;20203;-82
2022/10/02 04:14:32;;;;;;;4.10;2.20;;;;;;;;;;4988532;28;20188;-82
2022/10/02 04:17:02;;;;;;;4.37;1.60;;;;;;;;;;5003500;28;20275;-83
2022/10/02 04:19:45;;;;;;;5.37;2.13;;;;;;;;;;4985497;28;20177;-83
2022/10/02 04:22:10;;;;;;;5.13;2.00;;;;;;;;;;4987314;28;20205;-82
2022/10/02 04:24:43;;;;;;;4.63;1.87;;;;;;;;;;4988554;28;20217;-82
2022/10/02 04:27:09;;;;;;;11.30;2.93;;;;;;;;;;4990553;28;20180;-83
2022/10/02 04:29:38;;;;;;;8.97;2.40;;;;;;;;;;4988216;28;20189;-82
2022/10/02 04:32:10;;;;;;;7.60;2.43;;;;;;;;;;4989681;28;20208;-82
2022/10/02 04:34:35;;;;;;;6.53;2.70;;;;;;;;;;4982589;28;20236;-82
2022/10/02 04:37:14;;;;;;;8.87;2.47;;;;;;;;;;5008252;28;20186;-82
2022/10/02 04:39:45;;;;;;;6.63;2.40;;;;;;;;;;4985174;28;20180;-82
2022/10/02 04:42:16;;;;;;;6.87;2.03;;;;;;;;;;4987954;28;20181;-82
2022/10/02 04:44:55;;;;;;;7.90;2.00;;;;;;;;;;4988482;28;20186;-82
2022/10/02 04:47:34;;;;;;;8.50;2.27;;;;;;;;;;4994553;28;20483;-83
2022/10/02 04:50:18;;;;;;;6.30;2.00;;;;;;;;;;4995243;28;20272;-83
2022/10/02 04:53:00;;;;;;;4.40;2.53;;;;;;;;;;4990165;28;20260;-84
2022/10/02 04:55:26;;;;;;;5.80;2.80;;;;;;;;;;4989167;28;20195;-82
2022/10/02 04:58:17;;;;;;;8.87;2.60;;;;;;;;;;4992471;28;20173;-83
2022/10/02 05:00:45;;;;;;;6.57;2.13;;;;;;;;;;4972292;28;20245;-82
2022/10/02 05:03:21;;;;;;;7.03;2.30;;;;;;;;;;4994892;28;20236;-82
2022/10/02 05:05:58;;;;;;;3.63;2.53;;;;;;;;;;4989926;28;20198;-83
2022/10/02 05:08:35;;;;;;;4.47;2.13;;;;;;;;;;4991491;28;20182;-83
2022/10/02 05:11:10;;;;;;;7.47;1.90;;;;;;;;;;4993490;28;20211;-83
2022/10/02 05:13:38;;;;;;;7.10;2.37;;;;;;;;;;4982013;28;20184;-83
2022/10/02 05:16:22;;;;;;;5.17;2.27;;;;;;;;;;4991282;28;20184;-82
2022/10/02 05:19:07;;;;;;;5.33;2.13;;;;;;;;;;4987980;28;20207;-83
2022/10/02 05:21:41;;;;;;;5.87;2.40;;;;;;;;;;4983197;28;20207;-83
2022/10/02 05:24:15;;;;;;;4.97;2.30;;;;;;;;;;5009851;28;20228;-82
2022/10/02 05:26:57;;;;;;;6.33;2.27;;;;;;;;;;4992561;28;20224;-82
2022/10/02 05:29:29;;;;;;;6.53;2.57;;;;;;;;;;4995174;28;20176;-83
2022/10/02 05:32:24;;;;;;;6.13;3.27;;;;;;;;;;4992116;28;20204;-82
2022/10/02 05:35:08;;;;;;;5.50;2.10;;;;;;;;;;4974854;28;20185;-83
2022/10/02 05:37:56;;;;;;;7.13;2.20;;;;;;;;;;4993076;28;20182;-84
2022/10/02 05:40:23;;;;;;;4.90;1.83;;;;;;;;;;4990650;28;20224;-83
2022/10/02 05:43:05;;;;;;;4.77;1.77;;;;;;;;;;4991562;28;20186;-83
2022/10/02 05:45:42;;;;;;;4.30;2.17;;;;;;;;;;4988981;28;20188;-83
2022/10/02 05:48:08;;;;;;;4.10;1.73;;;;;;;;;;4989223;28;20180;-82
2022/10/02 05:50:35;;;;;;;3.93;1.70;;;;;;;;;;4987188;28;20235;-83
2022/10/02 05:53:13;;;;;;;3.50;1.80;;;;;;;;;;4997929;28;20230;-83
2022/10/02 05:55:38;;;;;;;6.77;4.00;;;;;;;;;;4986867;28;20185;-83
2022/10/02 05:58:09;;;;;;;9.03;6.50;;;;;;;;;;4991278;28;20181;-83
2022/10/02 06:00:37;;;;;;;8.27;6.13;;;;;;;;;;4985837;28;20195;-84
2022/10/02 06:03:10;;;;;;;5.53;2.93;;;;;;;;;;4987189;28;20184;-82
2022/10/02 06:05:41;;;;;;;2.60;1.83;;;;;;;;;;4989666;28;20244;-83
2022/10/02 06:08:09;;;;;;;3.83;2.00;;;;;;;;;;4992241;28;20204;-83
2022/10/02 06:10:40;;;;;;;1.87;1.30;;;;;;;;;;4991722;28;20199;-83
2022/10/02 06:13:17;;;;;;;4.53;2.20;;;;;;;;;;4990429;28;20235;-82
2022/10/02 06:15:48;;;;;;;4.67;1.80;;;;;;;;;;4992966;28;20179;-84
2022/10/02 06:18:18;;;;;;;4.97;1.53;;;;;;;;;;4992054;28;20178;-83
2022/10/02 06:20:43;;;;;;;4.67;1.60;;;;;;;;;;4991435;28;20184;-83
2022/10/02 06:23:11;;;;;;;4.40;1.50;;;;;;;;;;4988072;28;20178;-83
2022/10/02 06:25:55;;;;;;;2.90;1.50;;;;;;;;;;4990106;28;20176;-84
2022/10/02 06:28:31;;;;;;;2.77;1.50;;;;;;;;;;4989742;28;20187;-83
2022/10/02 06:31:20;;;;;;;1.50;1.30;;;;;;;;;;4994362;28;20196;-83
2022/10/02 06:33:45;;;;;;;2.67;1.73;;;;;;;;;;4989720;28;20245;-83
2022/10/02 06:36:34;;;;;;;6.43;1.70;;;;;;;;;;4988458;28;20263;-83
2022/10/02 06:39:14;;;;;;;1.40;1.20;;;;;;;;;;4966943;28;20241;-83
2022/10/02 06:41:53;;;;;;;2.47;1.47;;;;;;;;;;4989652;28;20208;-83
2022/10/02 06:44:26;;;;;;;2.90;1.97;;;;;;;;;;4986134;28;20181;-82
2022/10/02 06:47:09;;;;;;;1.63;1.50;;;;;;;;;;4986941;28;20211;-83
2022/10/02 06:49:45;;;;;;;1.60;1.27;;;;;;;;;;4987981;28;20188;-82
2022/10/02 06:52:13;;;;;;;2.60;1.40;;;;;;;;;;5000279;28;20224;-82
2022/10/02 06:54:47;;;;;;;1.30;1.20;;;;;;;;;;4987760;28;20192;-83
2022/10/02 06:57:25;;;;;;;1.90;1.27;;;;;;;;;;4992084;28;20179;-83
2022/10/02 07:00:16;;;;;;;4.03;1.30;;;;;;;;;;4991185;28;20175;-83
2022/10/02 07:03:00;;;;;;;1.40;1.30;;;;;;;;;;4987586;28;20216;-83
2022/10/02 07:05:28;;;;;;;2.67;1.93;;;;;;;;;;4989031;28;20219;-82
2022/10/02 07:07:54;;;;;;;4.23;2.00;;;;;;;;;;4992526;28;20189;-84
2022/10/02 07:10:22;;;;;;;4.30;2.40;;;;;;;;;;4989066;28;20203;-84
2022/10/02 07:13:06;;;;;;;4.10;2.03;;;;;;;;;;4988621;28;20265;-84
2022/10/02 07:15:48;;;;;;;2.10;1.93;;;;;;;;;;4989373;28;20178;-83
2022/10/02 07:18:18;;;;;;;1.90;1.80;;;;;;;;;;4990353;28;20179;-84
2022/10/02 07:20:46;;;;;;;2.70;1.93;;;;;;;;;;5003612;28;20193;-83
2022/10/02 07:23:39;;;;;;;4.13;3.73;;;;;;;;;;4987297;28;20338;-83
2022/10/02 07:26:16;;;;;;;4.20;3.00;;;;;;;;;;4990397;28;20228;-83
2022/10/02 07:28:53;;;;;;;2.73;2.30;;;;;;;;;;4988430;28;20180;-83
2022/10/02 07:31:19;;;;;;;4.50;1.90;;;;;;;;;;4989506;28;20197;-83
2022/10/02 07:34:05;;;;;;;2.47;1.83;;;;;;;;;;4988088;28;20225;-83
2022/10/02 07:36:42;;;;;;;5.73;2.40;;;;;;;;;;4995896;28;20194;-83
2022/10/02 07:39:11;;;;;;;3.93;2.90;;;;;;;;;;4990349;28;20179;-82
2022/10/02 07:41:51;;;;;;;4.53;2.80;;;;;;;;;;4990921;28;20184;-83
2022/10/02 07:44:23;;;;;;;2.23;1.73;;;;;;;;;;4986357;28;20276;-83
2022/10/02 07:47:04;;;;;;;2.00;1.80;;;;;;;;;;4988794;28;20197;-82
2022/10/02 07:49:35;;;;;;;4.03;2.60;;;;;;;;;;4997918;28;20478;-83
2022/10/02 07:52:06;;;;;;;5.17;3.53;;;;;;;;;;4990165;28;20292;-83
2022/10/02 07:54:51;;;;;;;5.87;3.07;;;;;;;;;;4986234;28;20202;-83
2022/10/02 07:57:25;;;;;;;7.57;3.00;;;;;;;;;;4990154;28;20257;-83
2022/10/02 07:59:53;;;;;;;4.63;3.37;;;;;;;;;;4990903;28;20284;-83
2022/10/02 08:02:39;;;;;;;4.77;2.10;;;;;;;;;;5003123;28;20185;-83
2022/10/02 08:05:07;;;;;;;4.67;2.23;;;;;;;;;;4984285;28;20191;-83
2022/10/02 08:07:33;;;;;;;2.93;2.20;;;;;;;;;;4988381;28;20273;-81
2022/10/02 08:10:02;;;;;;;5.13;2.47;;;;;;;;;;4990002;28;20250;-82
2022/10/02 08:12:38;;;;;;;4.13;3.50;;;;;;;;;;4988065;28;20201;-83
2022/10/02 08:15:04;;;;;;;4.60;2.80;;;;;;;;;;4987366;28;20196;-83
2022/10/02 08:20:43;;;;;;;5.17;2.07;;;;;;;;;;4989934;28;20272;-82
2022/10/02 08:26:14;;;;;;;5.53;3.57;;;;;;;;;;4994871;28;20214;-82
2022/10/02 08:29:04;;;;;;;4.00;3.23;;;;;;;;;;5000022;28;20179;-82
2022/10/02 08:31:29;;;;;;;2.67;1.93;;;;;;;;;;4987804;28;20206;-83
2022/10/02 08:33:56;;;;;;;6.27;3.87;;;;;;;;;;4991017;28;20184;-83
2022/10/02 08:36:37;;;;;;;3.37;2.60;;;;;;;;;;4992939;28;20214;-82
2022/10/02 08:42:27;;;;;;;2.53;1.90;;;;;;;;;;4991420;28;20261;-82
2022/10/02 08:45:02;;;;;;;2.33;2.13;;;;;;;;;;4980977;28;20245;-82
2022/10/02 08:56:51;;;;;;;1.43;1.30;;;;;;;;;;5009961;28;20347;-82
2022/10/02 08:59:27;;;;;;;1.87;1.30;;;;;;;;;;4996884;28;20248;-83
2022/10/02 09:02:01;;;;;;;1.80;1.10;;;;;;;;;;5008178;28;20189;-83
2022/10/02 09:07:29;;;;;;;1.73;1.40;;;;;;;;;;5012168;28;20212;-82
2022/10/02 09:10:12;;;;;;;1.23;1.00;;;;;;;;;;4990817;28;20187;-83
2022/10/02 09:12:52;;;;;;;0.90;0.90;;;;;;;;;;4989017;28;20189;-82
2022/10/02 09:15:21;;;;;;;0.93;0.93;;;;;;;;;;4992414;28;20178;-82
2022/10/02 09:17:48;;;;;;;2.20;1.00;;;;;;;;;;4997171;28;20204;-82
2022/10/02 09:20:32;;;;;;;1.13;0.90;;;;;;;;;;4997518;28;20187;-83
2022/10/02 09:23:00;;;;;;;0.80;0.80;;;;;;;;;;4996142;28;20183;-83
2022/10/02 09:25:40;;;;;;;1.10;0.90;;;;;;;;;;4996093;28;20210;-83
2022/10/02 09:28:21;;;;;;;0.93;0.93;;;;;;;;;;4997955;28;20190;-83
2022/10/02 09:30:49;;;;;;;0.80;0.80;;;;;;;;;;4992524;28;20217;-83
2022/10/02 09:33:33;;;;;;;0.67;0.67;;;;;;;;;;4998462;28;20191;-83
2022/10/02 09:36:15;;;;;;;1.50;0.50;;;;;;;;;;4997825;28;20397;-83
2022/10/02 09:38:53;;;;;;;0.70;0.70;;;;;;;;;;4987774;28;20198;-83
2022/10/02 09:41:38;;;;;;;0.50;0.50;;;;;;;;;;4989209;28;20180;-83
2022/10/02 09:44:05;;;;;;;0.60;0.60;;;;;;;;;;4982107;28;20191;-83
2022/10/02 09:46:39;;;;;;;0.83;0.60;;;;;;;;;;4990589;28;20221;-83
2022/10/02 09:49:13;;;;;;;0.40;0.40;;;;;;;;;;4989123;28;20232;-82
2022/10/02 09:51:41;;;;;;;0.93;0.80;;;;;;;;;;4993155;28;20217;-83
2022/10/02 09:54:20;;;;;;;0.83;0.73;;;;;;;;;;4995464;28;20271;-83
2022/10/02 09:56:45;;;;;;;0.60;0.53;;;;;;;;;;4995255;28;20215;-83
2022/10/02 09:59:10;;;;;;;0.50;0.50;;;;;;;;;;4989066;28;20233;-82
2022/10/02 10:01:59;;;;;;;0.50;0.50;;;;;;;;;;4991293;28;20193;-83
2022/10/02 10:04:45;;;;;;;0.77;0.77;;;;;;;;;;4965571;28;20192;-83
2022/10/02 10:07:10;;;;;;;1.70;1.20;;;;;;;;;;4988537;28;20181;-83
2022/10/02 10:09:44;;;;;;;0.83;0.83;;;;;;;;;;4990877;28;20184;-83
2022/10/02 10:12:29;;;;;;;0.70;0.70;;;;;;;;;;4983714;28;20315;-82
2022/10/02 10:15:14;;;;;;;0.80;0.80;;;;;;;;;;4987557;28;20188;-83
2022/10/02 10:17:42;;;;;;;0.80;0.73;;;;;;;;;;4991667;28;20185;-83
2022/10/02 10:20:08;;;;;;;0.73;0.57;;;;;;;;;;4990656;28;20189;-82
2022/10/02 10:22:48;;;;;;;0.70;0.70;;;;;;;;;;4990163;28;20185;-82
2022/10/02 10:25:19;;;;;;;0.87;0.83;;;;;;;;;;4987475;28;20182;-82
2022/10/02 10:27:57;;;;;;;1.17;0.57;;;;;;;;;;4990967;28;20170;-83
2022/10/02 10:30:42;;;;;;;0.40;0.40;;;;;;;;;;4985844;28;20209;-83
2022/10/02 10:33:08;;;;;;;0.90;0.90;;;;;;;;;;4989200;28;20184;-83
2022/10/02 10:35:46;;;;;;;0.63;0.60;;;;;;;;;;4988213;28;20232;-82
2022/10/02 10:38:33;;;;;;;0.70;0.70;;;;;;;;;;4988433;28;20184;-83
2022/10/02 10:41:18;;;;;;;0.70;0.70;;;;;;;;;;4996815;28;20181;-83
2022/10/02 10:43:49;;;;;;;0.80;0.80;;;;;;;;;;5003281;28;20190;-82
2022/10/02 10:46:14;;;;;;;0.70;0.70;;;;;;;;;;4987012;28;20184;-82
2022/10/02 10:48:59;;;;;;;0.83;0.83;;;;;;;;;;4989284;28;20185;-82
2022/10/02 10:51:44;;;;;;;0.73;0.70;;;;;;;;;;4989676;28;20213;-82
2022/10/02 10:54:22;;;;;;;2.50;1.10;;;;;;;;;;4987854;28;20172;-82
2022/10/02 10:57:07;;;;;;;0.80;0.80;;;;;;;;;;4989565;28;20190;-82
2022/10/02 10:59:45;;;;;;;1.07;0.50;;;;;;;;;;4990648;28;20222;-82
2022/10/02 11:02:19;;;;;;;0.90;0.90;;;;;;;;;;4991519;28;20360;-83
2022/10/02 11:05:03;;;;;;;29.63;16.17;;;;;;;;;;4990364;28;20234;-83
2022/10/02 11:07:47;;;;;;;2.53;2.33;;;;;;;;;;4989489;28;20291;-82
2022/10/02 11:10:22;;;;;;;3.23;2.80;;;;;;;;;;4984164;28;20180;-82
2022/10/02 11:13:00;;;;;;;2.43;1.53;;;;;;;;;;4992936;28;20181;-82
2022/10/02 11:15:25;;;;;;;1.10;1.07;;;;;;;;;;4989794;28;20313;-82
2022/10/02 11:17:57;;;;;;;1.40;1.30;;;;;;;;;;4986003;28;20270;-82
2022/10/02 11:20:34;;;;;;;1.00;1.00;;;;;;;;;;4982571;28;20320;-84
2022/10/02 11:23:29;;;;;;;1.30;1.20;;;;;;;;;;4985546;28;20186;-83
2022/10/02 11:25:58;;;;;;;1.20;1.10;;;;;;;;;;4953951;28;20205;-85
2022/10/02 11:28:29;;;;;;;1.17;1.17;;;;;;;;;;4983741;28;20183;-83
2022/10/02 11:31:16;;;;;;;1.27;1.00;;;;;;;;;;4988455;28;20206;-85
2022/10/02 11:33:41;;;;;;;1.03;0.97;;;;;;;;;;4986925;28;20188;-83
2022/10/02 11:36:24;;;;;;;1.93;1.10;;;;;;;;;;4986790;28;20187;-86
2022/10/02 11:39:08;;;;;;;1.00;1.00;;;;;;;;;;4986015;28;20200;-83
2022/10/02 11:41:52;;;;;;;0.87;0.87;;;;;;;;;;4988677;28;20194;-82
2022/10/02 11:44:36;;;;;;;2.20;0.60;;;;;;;;;;4982590;28;20194;-84
2022/10/02 11:47:20;;;;;;;0.80;0.80;;;;;;;;;;4987716;28;20314;-83
2022/10/02 11:50:00;;;;;;;0.63;0.63;;;;;;;;;;4983901;28;20761;-82
2022/10/02 11:52:45;;;;;;;0.80;0.80;;;;;;;;;;4984387;28;20265;-84
2022/10/02 11:55:21;;;;;;;1.00;1.00;;;;;;;;;;4993120;28;20191;-84
2022/10/02 11:57:55;;;;;;;0.60;0.60;;;;;;;;;;4996484;28;20237;-83
2022/10/02 12:00:26;;;;;;;0.90;0.90;;;;;;;;;;5002768;28;20240;-83
2022/10/02 12:02:56;;;;;;;2.20;1.03;;;;;;;;;;5002515;28;20222;-82
2022/10/02 12:05:41;;;;;;;0.80;0.80;;;;;;;;;;5001753;28;20186;-84
2022/10/02 12:08:13;;;;;;;0.70;0.70;;;;;;;;;;5007350;28;20176;-83
2022/10/02 12:10:49;;;;;;;0.90;0.90;;;;;;;;;;4999912;28;20296;-83
2022/10/02 12:13:41;;;;;;;0.70;0.70;;;;;;;;;;4998235;28;20214;-82
2022/10/02 12:16:06;;;;;;;0.50;0.50;;;;;;;;;;4962818;28;20186;-83
2022/10/02 12:18:40;;;;;;;0.50;0.50;;;;;;;;;;5003672;28;20170;-83
2022/10/02 12:27:21;;;;;;;1.00;1.00;;;;;;;;;;5018964;28;20186;-83
2022/10/02 12:30:09;;;;;;;1.30;1.20;;;;;;;;;;5003882;28;20195;-83
2022/10/02 12:32:56;;;;;;;1.57;1.10;;;;;;;;;;4998735;28;20217;-83
2022/10/02 12:35:31;;;;;;;1.07;0.93;;;;;;;;;;4998751;28;20188;-83
2022/10/02 12:37:56;;;;;;;1.00;0.90;;;;;;;;;;5000287;28;20191;-83
2022/10/02 12:40:32;;;;;;;1.63;1.20;;;;;;;;;;4995806;28;20198;-83
2022/10/02 12:43:16;;;;;;;1.00;0.90;;;;;;;;;;4992386;28;20190;-83
2022/10/02 12:45:50;;;;;;;1.03;0.63;;;;;;;;;;4994926;28;20242;-84
2022/10/02 12:48:25;;;;;;;0.60;0.60;;;;;;;;;;4994866;28;20179;-84
2022/10/02 12:51:09;;;;;;;0.33;0.33;;;;;;;;;;5010254;28;20203;-84
2022/10/02 12:53:43;;;;;;;0.40;0.40;;;;;;;;;;4993108;28;20186;-83
2022/10/02 12:56:20;;;;;;;5.23;2.60;;;;;;;;;;4996807;28;20274;-84
2022/10/02 12:58:46;;;;;;;0.87;0.83;;;;;;;;;;4993833;28;22022;-83
2022/10/02 13:01:14;;;;;;;0.30;0.30;;;;;;;;;;4989799;28;20215;-84
2022/10/02 13:03:58;;;;;;;0.27;0.27;;;;;;;;;;4991182;28;20180;-84
2022/10/02 13:06:36;;;;;;;0.57;0.57;;;;;;;;;;4991279;28;20242;-84
2022/10/02 13:09:14;;;;;;;0.67;0.67;;;;;;;;;;4991971;28;20231;-84
2022/10/02 13:11:58;;;;;;;4.30;0.97;;;;;;;;;;4992088;28;20224;-83
2022/10/02 13:14:43;;;;;;;0.63;0.63;;;;;;;;;;4985162;28;20184;-83
2022/10/02 13:17:27;;;;;;;1.50;1.40;;;;;;;;;;4989773;28;20176;-82
2022/10/02 13:19:55;;;;;;;0.80;0.80;;;;;;;;;;4991334;28;20190;-82
2022/10/02 13:22:30;;;;;;;1.93;1.83;;;;;;;;;;4991348;28;20207;-84
2022/10/02 13:24:58;;;;;;;0.63;0.63;;;;;;;;;;4989365;28;20253;-83
2022/10/02 13:27:39;;;;;;;1.13;0.93;;;;;;;;;;4986685;28;20186;-84
2022/10/02 13:30:04;;;;;;;0.90;0.70;;;;;;;;;;4984877;28;20183;-83
2022/10/02 13:32:33;;;;;;;0.50;0.50;;;;;;;;;;4993068;28;20291;-84
2022/10/02 13:35:04;;;;;;;0.70;0.70;;;;;;;;;;4992115;28;20232;-84
2022/10/02 13:37:29;;;;;;;0.70;0.70;;;;;;;;;;4990685;28;20215;-83
2022/10/02 13:39:55;;;;;;;0.70;0.70;;;;;;;;;;4992740;28;20198;-83
2022/10/02 13:42:35;;;;;;;0.77;0.77;;;;;;;;;;4998712;28;20242;-84
2022/10/02 13:45:01;;;;;;;4.40;1.17;;;;;;;;;;4989860;28;20195;-84
2022/10/02 13:47:42;;;;;;;4.77;1.30;;;;;;;;;;4991842;28;20241;-83
2022/10/02 13:50:23;;;;;;;16.70;2.20;;;;;;;;;;4992356;28;20267;-84
2022/10/02 13:53:17;;;;;;;14.30;2.33;;;;;;;;;;4988996;28;20207;-84
2022/10/02 13:55:42;;;;;;;1.30;1.03;;;;;;;;;;4996387;28;20178;-84
2022/10/02 13:58:17;;;;;;;16.93;1.70;;;;;;;;;;4991877;28;20234;-83
2022/10/02 14:00:57;;;;;;;2.50;1.10;;;;;;;;;;4989210;28;20181;-84
2022/10/02 14:03:37;;;;;;;0.80;0.80;;;;;;;;;;5006902;28;20217;-83
2022/10/02 14:06:13;;;;;;;0.93;0.90;;;;;;;;;;4996466;28;20195;-84
2022/10/02 14:08:51;;;;;;;0.67;0.67;;;;;;;;;;4986746;28;20187;-82
2022/10/02 14:11:34;;;;;;;0.70;0.70;;;;;;;;;;4988758;28;20199;-83
2022/10/02 14:14:03;;;;;;;0.47;0.47;;;;;;;;;;4990664;28;20257;-84
2022/10/02 14:16:40;;;;;;;1.47;0.73;;;;;;;;;;4990811;28;20190;-83
2022/10/02 14:19:20;;;;;;;1.80;1.00;;;;;;;;;;4985953;28;20182;-82
2022/10/02 14:21:51;;;;;;;0.70;0.70;;;;;;;;;;4985755;28;20286;-83
2022/10/02 14:27:19;;;;;;;0.80;0.80;;;;;;;;;;4990354;28;20204;-84
2022/10/02 14:29:55;;;;;;;0.50;0.50;;;;;;;;;;4988334;28;20495;-83
2022/10/02 14:32:27;;;;;;;0.30;0.30;;;;;;;;;;4989700;28;20209;-83
2022/10/02 14:35:01;;;;;;;0.50;0.50;;;;;;;;;;4991527;28;20214;-83
2022/10/02 14:37:29;;;;;;;1.27;0.47;;;;;;;;;;4993837;28;20179;-84
2022/10/02 14:39:56;;;;;;;0.50;0.50;;;;;;;;;;4990463;28;20190;-82
2022/10/02 14:42:33;;;;;;;0.77;0.77;;;;;;;;;;4989225;28;20216;-83
2022/10/02 14:45:02;;;;;;;0.40;0.40;;;;;;;;;;4990343;28;20320;-83
2022/10/02 14:47:31;;;;;;;0.30;0.30;;;;;;;;;;4983701;28;20194;-83
2022/10/02 14:49:57;;;;;;;0.60;0.60;;;;;;;;;;4984815;28;20183;-83
2022/10/02 14:52:46;;;;;;;0.40;0.40;;;;;;;;;;4984216;28;20229;-83
2022/10/02 14:55:23;;;;;;;1.10;1.00;;;;;;;;;;4989198;28;20176;-84
2022/10/02 14:58:11;;;;;;;1.30;0.90;;;;;;;;;;4984835;28;20249;-82
2022/10/02 15:00:56;;;;;;;0.80;0.80;;;;;;;;;;4967412;28;20194;-83
2022/10/02 15:03:21;;;;;;;2.07;1.27;;;;;;;;;;4990370;28;20178;-83
2022/10/02 15:05:49;;;;;;;2.30;2.17;;;;;;;;;;4992819;28;20187;-82
2022/10/02 15:08:16;;;;;;;0.60;0.60;;;;;;;;;;5003669;28;20187;-83
2022/10/02 15:10:43;;;;;;;0.60;0.60;;;;;;;;;;4986308;28;20212;-81
2022/10/02 15:13:11;;;;;;;0.50;0.50;;;;;;;;;;4989976;28;20202;-83
2022/10/02 15:15:43;;;;;;;0.50;0.50;;;;;;;;;;4996468;28;20228;-83
2022/10/02 15:18:27;;;;;;;0.40;0.40;;;;;;;;;;4989421;28;20215;-84
2022/10/02 15:20:58;;;;;;;0.60;0.60;;;;;;;;;;4988205;28;20182;-83
2022/10/02 15:23:39;;;;;;;0.40;0.40;;;;;;;;;;4991028;28;20178;-83
2022/10/02 15:26:04;;;;;;;0.10;0.10;;;;;;;;;;4989596;28;20185;-84
2022/10/02 15:28:50;;;;;;;1.47;0.50;;;;;;;;;;5005732;28;20170;-83
2022/10/02 15:31:25;;;;;;;0.50;0.50;;;;;;;;;;4991339;28;20257;-81
2022/10/02 15:33:57;;;;;;;0.63;0.43;;;;;;;;;;4986209;28;20177;-84
2022/10/02 15:36:28;;;;;;;1.03;1.00;;;;;;;;;;4994419;28;20176;-83
2022/10/02 15:39:11;;;;;;;0.80;0.50;;;;;;;;;;4984915;28;20178;-83
2022/10/02 15:41:51;;;;;;;0.90;0.57;;;;;;;;;;4986952;28;20232;-83
2022/10/02 15:44:29;;;;;;;0.20;0.20;;;;;;;;;;4991220;28;20249;-83
2022/10/02 15:47:01;;;;;;;0.60;0.60;;;;;;;;;;4989690;28;20202;-83
2022/10/02 15:49:41;;;;;;;0.87;0.57;;;;;;;;;;4991815;28;20184;-83
2022/10/02 15:52:15;;;;;;;0.40;0.40;;;;;;;;;;4989706;28;20217;-83
2022/10/02 15:54:47;;;;;;;0.70;0.50;;;;;;;;;;4993193;28;20180;-83
2022/10/02 15:57:17;;;;;;;0.50;0.50;;;;;;;;;;4991421;28;20189;-83